createdAt,value
2016-12-11T00:00:43.921Z,0
2016-12-11T00:01:44.562Z,0
2016-12-11T00:02:45.211Z,0
2016-12-11T00:03:45.843Z,0
2016-12-11T00:04:46.479Z,0
2016-12-11T00:05:47.109Z,0
2016-12-11T00:06:47.740Z,0
2016-12-11T00:07:48.378Z,0
2016-12-11T00:08:49.013Z,0
2016-12-11T00:09:49.663Z,0
2016-12-11T00:10:50.317Z,0
2016-12-11T00:11:50.978Z,0
2016-12-11T00:12:51.602Z,0
2016-12-11T00:13:52.244Z,0
2016-12-11T00:14:52.898Z,0
2016-12-11T00:15:53.530Z,0
2016-12-11T00:16:54.178Z,0
2016-12-11T00:17:54.825Z,0
2016-12-11T00:18:55.480Z,0
2016-12-11T00:19:56.126Z,0
2016-12-11T00:20:56.758Z,0
2016-12-11T00:21:57.410Z,0
2016-12-11T00:22:58.065Z,0
2016-12-11T00:23:58.697Z,0
2016-12-11T00:24:59.318Z,0
2016-12-11T00:25:59.946Z,0
2016-12-11T00:27:00.588Z,0
2016-12-11T00:28:01.232Z,0
2016-12-11T00:29:01.854Z,0
2016-12-11T00:30:02.510Z,0
2016-12-11T00:31:03.157Z,0
2016-12-11T00:32:03.804Z,0
2016-12-11T00:33:04.443Z,0
2016-12-11T00:34:05.100Z,0
2016-12-11T00:35:05.741Z,0
2016-12-11T00:36:06.391Z,0
2016-12-11T00:37:07.059Z,0
2016-12-11T00:38:07.700Z,0
2016-12-11T00:39:08.340Z,0
2016-12-11T00:40:09.010Z,0
2016-12-11T00:41:09.689Z,0
2016-12-11T00:42:10.330Z,0
2016-12-11T00:43:10.981Z,0
2016-12-11T00:44:11.638Z,0
2016-12-11T00:45:12.283Z,0
2016-12-11T00:46:12.924Z,0
2016-12-11T00:47:13.565Z,0
2016-12-11T00:48:14.211Z,0
2016-12-11T00:49:14.845Z,0
2016-12-11T00:50:15.484Z,0
2016-12-11T00:51:16.155Z,0
2016-12-11T00:52:16.826Z,0
2016-12-11T00:53:17.486Z,0
2016-12-11T00:54:18.150Z,0
2016-12-11T00:55:18.806Z,0
2016-12-11T00:56:19.430Z,0
2016-12-11T00:57:20.059Z,0
2016-12-11T00:58:20.697Z,0
2016-12-11T00:59:21.357Z,0
2016-12-11T01:00:21.985Z,0
2016-12-11T01:01:22.626Z,0
2016-12-11T01:02:23.256Z,0
2016-12-11T01:03:23.906Z,0
2016-12-11T01:04:24.532Z,0
2016-12-11T01:05:25.181Z,0
2016-12-11T01:06:25.804Z,0
2016-12-11T01:07:26.443Z,0
2016-12-11T01:08:27.071Z,0
2016-12-11T01:09:27.696Z,0
2016-12-11T01:10:28.324Z,0
2016-12-11T01:11:28.938Z,0
2016-12-11T01:12:29.554Z,0
2016-12-11T01:13:30.181Z,0
2016-12-11T01:14:30.813Z,0
2016-12-11T01:15:31.433Z,0
2016-12-11T01:16:32.072Z,0
2016-12-11T01:17:32.713Z,0
2016-12-11T01:18:33.348Z,0
2016-12-11T01:19:33.973Z,0
2016-12-11T01:20:34.597Z,0
2016-12-11T01:21:35.249Z,0
2016-12-11T01:22:35.885Z,0
2016-12-11T01:23:36.577Z,0
2016-12-11T01:24:37.232Z,0
2016-12-11T01:25:37.859Z,0
2016-12-11T01:26:38.484Z,0
2016-12-11T01:27:39.101Z,0
2016-12-11T01:28:39.724Z,0
2016-12-11T01:29:40.347Z,0
2016-12-11T01:30:40.980Z,0
2016-12-11T01:31:41.615Z,0
2016-12-11T01:32:42.256Z,0
2016-12-11T01:33:42.910Z,0
2016-12-11T01:34:43.524Z,0
2016-12-11T01:35:44.152Z,0
2016-12-11T01:36:44.783Z,0
2016-12-11T01:37:45.416Z,0
2016-12-11T01:38:46.078Z,0
2016-12-11T01:39:46.703Z,0
2016-12-11T01:40:47.323Z,0
2016-12-11T01:41:47.944Z,0
2016-12-11T01:42:48.574Z,0
2016-12-11T01:43:49.195Z,0
2016-12-11T01:44:49.831Z,0
2016-12-11T01:45:50.485Z,0
2016-12-11T01:46:51.111Z,0
2016-12-11T01:47:51.735Z,0
2016-12-11T01:48:52.358Z,0
2016-12-11T01:49:52.982Z,0
2016-12-11T01:50:53.619Z,0
2016-12-11T01:51:54.266Z,0
2016-12-11T01:52:54.898Z,0
2016-12-11T01:53:55.555Z,0
2016-12-11T01:54:56.189Z,0
2016-12-11T01:55:56.804Z,0
2016-12-11T01:56:57.432Z,0
2016-12-11T01:57:58.058Z,0
2016-12-11T01:58:58.692Z,0
2016-12-11T01:59:59.353Z,0
2016-12-11T02:00:59.971Z,0
2016-12-11T02:02:00.601Z,0
2016-12-11T02:03:01.215Z,0
2016-12-11T02:04:01.862Z,0
2016-12-11T02:05:02.489Z,0
2016-12-11T02:06:03.139Z,0
2016-12-11T02:07:03.775Z,0
2016-12-11T02:08:04.401Z,0
2016-12-11T02:09:05.030Z,0
2016-12-11T02:10:05.638Z,0
2016-12-11T02:11:06.240Z,0
2016-12-11T02:12:06.863Z,0
2016-12-11T02:13:07.519Z,0
2016-12-11T02:14:08.185Z,0
2016-12-11T02:15:08.815Z,0
2016-12-11T02:16:09.480Z,0
2016-12-11T02:17:10.102Z,0
2016-12-11T02:18:10.730Z,0
2016-12-11T02:19:11.378Z,0
2016-12-11T02:20:11.992Z,0
2016-12-11T02:21:12.615Z,0
2016-12-11T02:22:13.237Z,0
2016-12-11T02:23:13.854Z,0
2016-12-11T02:24:14.489Z,0
2016-12-11T02:25:15.127Z,0
2016-12-11T02:26:15.766Z,0
2016-12-11T02:27:16.403Z,0
2016-12-11T02:28:17.052Z,0
2016-12-11T02:29:17.673Z,0
2016-12-11T02:30:18.296Z,0
2016-12-11T02:31:18.909Z,0
2016-12-11T02:32:19.539Z,0
2016-12-11T02:33:20.174Z,0
2016-12-11T02:34:20.825Z,0
2016-12-11T02:35:21.458Z,0
2016-12-11T02:36:22.102Z,0
2016-12-11T02:37:22.744Z,0
2016-12-11T02:38:23.361Z,0
2016-12-11T02:39:23.990Z,0
2016-12-11T02:40:24.605Z,0
2016-12-11T02:41:25.242Z,0
2016-12-11T02:42:25.901Z,0
2016-12-11T02:43:26.546Z,0
2016-12-11T02:44:27.187Z,0
2016-12-11T02:45:27.816Z,0
2016-12-11T02:46:28.440Z,0
2016-12-11T02:47:29.062Z,0
2016-12-11T02:48:29.690Z,0
2016-12-11T02:49:30.300Z,0
2016-12-11T02:50:30.919Z,0
2016-12-11T02:51:31.541Z,0
2016-12-11T02:52:32.165Z,0
2016-12-11T02:53:32.785Z,0
2016-12-11T02:54:33.403Z,0
2016-12-11T02:55:34.027Z,0
2016-12-11T02:56:34.639Z,0
2016-12-11T02:57:35.266Z,0
2016-12-11T02:58:38.465Z,0
2016-12-11T02:59:39.100Z,0
2016-12-11T03:00:39.737Z,0
2016-12-11T03:01:40.358Z,0
2016-12-11T03:02:40.991Z,0
2016-12-11T03:03:41.628Z,0
2016-12-11T03:04:42.268Z,0
2016-12-11T03:05:42.890Z,0
2016-12-11T03:06:43.517Z,0
2016-12-11T03:07:44.139Z,0
2016-12-11T03:08:44.802Z,0
2016-12-11T03:09:45.434Z,0
2016-12-11T03:10:46.056Z,0
2016-12-11T03:11:46.686Z,0
2016-12-11T03:12:47.296Z,0
2016-12-11T03:13:47.924Z,0
2016-12-11T03:14:48.577Z,0
2016-12-11T03:15:49.222Z,0
2016-12-11T03:16:49.842Z,0
2016-12-11T03:17:50.452Z,0
2016-12-11T03:18:51.082Z,0
2016-12-11T03:19:51.697Z,0
2016-12-11T03:20:52.328Z,0
2016-12-11T03:21:52.961Z,0
2016-12-11T03:22:53.581Z,0
2016-12-11T03:23:54.260Z,0
2016-12-11T03:24:54.901Z,0
2016-12-11T03:25:55.528Z,0
2016-12-11T03:26:56.182Z,0
2016-12-11T03:27:56.807Z,0
2016-12-11T03:28:57.438Z,0
2016-12-11T03:29:58.103Z,0
2016-12-11T03:30:58.763Z,0
2016-12-11T03:31:59.432Z,0
2016-12-11T03:33:00.083Z,0
2016-12-11T03:34:00.690Z,0
2016-12-11T03:35:01.312Z,0
2016-12-11T03:36:01.928Z,0
2016-12-11T03:37:02.593Z,0
2016-12-11T03:38:03.260Z,0
2016-12-11T03:39:03.869Z,0
2016-12-11T03:40:04.472Z,0
2016-12-11T03:41:05.857Z,0
2016-12-11T03:42:06.472Z,0
2016-12-11T03:43:07.093Z,0
2016-12-11T03:44:07.732Z,0
2016-12-11T03:45:08.362Z,0
2016-12-11T03:46:09.009Z,0
2016-12-11T03:47:09.639Z,0
2016-12-11T03:48:10.287Z,0
2016-12-11T03:49:10.921Z,0
2016-12-11T03:50:11.551Z,0
2016-12-11T03:51:12.176Z,0
2016-12-11T03:52:12.795Z,0
2016-12-11T03:53:13.410Z,0
2016-12-11T03:54:14.034Z,0
2016-12-11T03:55:14.653Z,0
2016-12-11T03:56:15.280Z,0
2016-12-11T03:57:15.892Z,0
2016-12-11T03:58:16.516Z,0
2016-12-11T03:59:17.144Z,0
2016-12-11T04:00:17.762Z,0
2016-12-11T04:01:18.399Z,0
2016-12-11T04:02:19.019Z,0
2016-12-11T04:03:19.687Z,0
2016-12-11T04:04:20.301Z,0
2016-12-11T04:05:20.959Z,0
2016-12-11T04:06:21.582Z,0
2016-12-11T04:07:22.199Z,0
2016-12-11T04:08:22.846Z,0
2016-12-11T04:09:23.458Z,0
2016-12-11T04:10:24.088Z,0
2016-12-11T04:11:24.720Z,0
2016-12-11T04:12:25.376Z,0
2016-12-11T04:13:26.749Z,0
2016-12-11T04:14:27.369Z,0
2016-12-11T04:15:28.004Z,0
2016-12-11T04:16:28.624Z,0
2016-12-11T04:17:29.274Z,0
2016-12-11T04:18:29.908Z,0
2016-12-11T04:19:30.551Z,0
2016-12-11T04:20:31.192Z,0
2016-12-11T04:21:31.829Z,0
2016-12-11T04:22:32.486Z,0
2016-12-11T04:23:33.116Z,0
2016-12-11T04:24:33.771Z,0
2016-12-11T04:25:34.457Z,0
2016-12-11T04:26:35.093Z,0
2016-12-11T04:27:35.720Z,0
2016-12-11T04:28:36.378Z,0
2016-12-11T04:29:37.001Z,0
2016-12-11T04:30:37.619Z,0
2016-12-11T04:31:38.258Z,0
2016-12-11T04:32:38.865Z,0
2016-12-11T04:33:39.498Z,0
2016-12-11T04:34:40.131Z,0
2016-12-11T04:35:40.752Z,0
2016-12-11T04:36:41.370Z,0
2016-12-11T04:37:42.008Z,0
2016-12-11T04:38:42.616Z,0
2016-12-11T04:39:43.257Z,0
2016-12-11T04:40:43.888Z,0
2016-12-11T04:41:44.510Z,0
2016-12-11T04:42:45.155Z,0
2016-12-11T04:43:45.817Z,0
2016-12-11T04:44:46.440Z,0
2016-12-11T04:45:47.068Z,0
2016-12-11T04:46:47.702Z,0
2016-12-11T04:47:48.343Z,0
2016-12-11T04:48:48.975Z,0
2016-12-11T04:49:49.628Z,0
2016-12-11T04:50:50.267Z,0
2016-12-11T04:51:50.924Z,0
2016-12-11T04:52:51.543Z,0
2016-12-11T04:53:52.170Z,0
2016-12-11T04:54:52.815Z,0
2016-12-11T04:55:53.448Z,0
2016-12-11T04:56:54.087Z,0
2016-12-11T04:57:54.690Z,0
2016-12-11T04:58:55.323Z,0
2016-12-11T04:59:55.954Z,0
2016-12-11T05:00:56.580Z,0
2016-12-11T05:01:57.191Z,0
2016-12-11T05:02:57.809Z,0
2016-12-11T05:03:58.459Z,0
2016-12-11T05:04:59.085Z,0
2016-12-11T05:05:59.724Z,0
2016-12-11T05:07:00.341Z,0
2016-12-11T05:08:00.976Z,0
2016-12-11T05:09:01.617Z,0
2016-12-11T05:10:02.257Z,0
2016-12-11T05:11:02.869Z,0
2016-12-11T05:12:04.387Z,0
2016-12-11T05:13:05.039Z,0
2016-12-11T05:14:05.664Z,0
2016-12-11T05:15:06.345Z,0
2016-12-11T05:16:06.936Z,0
2016-12-11T05:17:07.545Z,0
2016-12-11T05:18:08.150Z,0
2016-12-11T05:19:08.823Z,0
2016-12-11T05:20:09.441Z,0
2016-12-11T05:21:10.052Z,0
2016-12-11T05:22:10.695Z,0
2016-12-11T05:23:11.316Z,0
2016-12-11T05:24:11.958Z,0
2016-12-11T05:25:12.583Z,0
2016-12-11T05:26:13.200Z,0
2016-12-11T05:27:13.871Z,0
2016-12-11T05:28:14.507Z,0
2016-12-11T05:29:15.129Z,0
2016-12-11T05:30:15.750Z,0
2016-12-11T05:31:16.386Z,0
2016-12-11T05:32:17.015Z,0
2016-12-11T05:33:17.634Z,0
2016-12-11T05:34:18.268Z,0
2016-12-11T05:35:18.895Z,0
2016-12-11T05:36:19.563Z,0
2016-12-11T05:37:20.170Z,0
2016-12-11T05:38:20.801Z,0
2016-12-11T05:39:21.466Z,0
2016-12-11T05:40:22.147Z,0
2016-12-11T05:41:22.800Z,0
2016-12-11T05:42:23.451Z,0
2016-12-11T05:43:24.113Z,0
2016-12-11T05:44:24.758Z,0
2016-12-11T05:45:25.399Z,0
2016-12-11T05:46:26.038Z,0
2016-12-11T05:47:26.673Z,0
2016-12-11T05:48:27.295Z,0
2016-12-11T05:49:27.950Z,0
2016-12-11T05:50:28.586Z,0
2016-12-11T05:51:29.215Z,0
2016-12-11T05:52:29.840Z,0
2016-12-11T05:53:30.473Z,0
2016-12-11T05:54:31.108Z,0
2016-12-11T05:55:31.746Z,0
2016-12-11T05:56:32.362Z,0
2016-12-11T05:57:32.985Z,0
2016-12-11T05:58:33.623Z,0
2016-12-11T05:59:34.257Z,0
2016-12-11T06:00:34.887Z,0
2016-12-11T06:01:35.530Z,0
2016-12-11T06:02:36.162Z,0
2016-12-11T06:03:36.796Z,0
2016-12-11T06:04:37.428Z,0
2016-12-11T06:05:38.046Z,0
2016-12-11T06:06:38.675Z,0
2016-12-11T06:07:39.296Z,0
2016-12-11T06:08:39.919Z,0
2016-12-11T06:09:40.556Z,0
2016-12-11T06:10:41.226Z,0
2016-12-11T06:11:41.866Z,0
2016-12-11T06:12:42.501Z,0
2016-12-11T06:13:43.116Z,0
2016-12-11T06:14:43.738Z,0
2016-12-11T06:15:44.362Z,0
2016-12-11T06:16:45.012Z,0
2016-12-11T06:17:45.649Z,0
2016-12-11T06:18:46.271Z,0
2016-12-11T06:19:46.915Z,0
2016-12-11T06:20:47.511Z,0
2016-12-11T06:21:48.136Z,0
2016-12-11T06:22:48.745Z,0
2016-12-11T06:23:49.380Z,0
2016-12-11T06:24:49.995Z,0
2016-12-11T06:25:50.649Z,0
2016-12-11T06:26:51.271Z,0
2016-12-11T06:27:51.938Z,0
2016-12-11T06:28:52.570Z,0
2016-12-11T06:29:53.236Z,0
2016-12-11T06:30:53.858Z,0
2016-12-11T06:31:54.480Z,0
2016-12-11T06:32:55.115Z,0
2016-12-11T06:33:55.722Z,0
2016-12-11T06:34:56.344Z,0
2016-12-11T06:35:56.982Z,0
2016-12-11T06:36:57.643Z,0
2016-12-11T06:37:58.277Z,0
2016-12-11T06:38:58.961Z,0
2016-12-11T06:39:59.571Z,0
2016-12-11T06:41:00.221Z,0
2016-12-11T06:42:00.906Z,0
2016-12-11T06:43:01.554Z,0
2016-12-11T06:44:02.189Z,0
2016-12-11T06:45:02.812Z,0
2016-12-11T06:46:03.480Z,0
2016-12-11T06:47:04.068Z,0
2016-12-11T06:48:04.722Z,0
2016-12-11T06:49:05.363Z,0
2016-12-11T06:50:05.965Z,0
2016-12-11T06:51:06.594Z,0
2016-12-11T06:52:07.213Z,0
2016-12-11T06:53:07.833Z,0
2016-12-11T06:54:08.487Z,0
2016-12-11T06:55:09.147Z,4
2016-12-11T06:56:09.753Z,4
2016-12-11T06:57:10.413Z,0
2016-12-11T06:58:11.090Z,4
2016-12-11T06:59:11.732Z,4
2016-12-11T07:00:12.372Z,4
2016-12-11T07:01:13.008Z,4
2016-12-11T07:02:13.643Z,4
2016-12-11T07:03:14.339Z,4
2016-12-11T07:04:14.971Z,8
2016-12-11T07:05:15.592Z,12
2016-12-11T07:06:16.216Z,12
2016-12-11T07:07:16.832Z,16
2016-12-11T07:08:17.465Z,16
2016-12-11T07:09:18.143Z,16
2016-12-11T07:10:18.788Z,20
2016-12-11T07:11:19.407Z,28
2016-12-11T07:12:20.092Z,28
2016-12-11T07:13:20.733Z,36
2016-12-11T07:14:21.390Z,44
2016-12-11T07:15:22.007Z,52
2016-12-11T07:16:22.681Z,60
2016-12-11T07:17:23.306Z,68
2016-12-11T07:18:23.929Z,76
2016-12-11T07:19:24.549Z,88
2016-12-11T07:20:25.185Z,100
2016-12-11T07:21:25.843Z,112
2016-12-11T07:22:26.472Z,124
2016-12-11T07:23:27.118Z,136
2016-12-11T07:24:27.741Z,148
2016-12-11T07:25:28.392Z,156
2016-12-11T07:26:29.040Z,164
2016-12-11T07:27:29.708Z,168
2016-12-11T07:28:30.342Z,192
2016-12-11T07:29:30.960Z,216
2016-12-11T07:30:31.587Z,244
2016-12-11T07:31:32.209Z,276
2016-12-11T07:32:32.824Z,292
2016-12-11T07:33:33.433Z,320
2016-12-11T07:34:34.075Z,352
2016-12-11T07:35:34.692Z,384
2016-12-11T07:36:35.317Z,408
2016-12-11T07:37:35.936Z,424
2016-12-11T07:38:36.560Z,452
2016-12-11T07:39:37.173Z,480
2016-12-11T07:40:37.881Z,492
2016-12-11T07:41:38.531Z,512
2016-12-11T07:42:39.221Z,512
2016-12-11T07:43:39.862Z,520
2016-12-11T07:44:40.483Z,528
2016-12-11T07:45:41.106Z,504
2016-12-11T07:46:41.763Z,492
2016-12-11T07:47:42.397Z,456
2016-12-11T07:48:43.045Z,444
2016-12-11T07:49:43.690Z,452
2016-12-11T07:50:44.352Z,464
2016-12-11T07:51:44.985Z,500
2016-12-11T07:52:45.611Z,584
2016-12-11T07:53:46.263Z,628
2016-12-11T07:54:46.924Z,652
2016-12-11T07:55:47.553Z,608
2016-12-11T07:56:48.214Z,608
2016-12-11T07:57:48.973Z,656
2016-12-11T07:58:49.628Z,660
2016-12-11T07:59:50.297Z,628
2016-12-11T08:00:50.970Z,680
2016-12-11T08:01:51.620Z,692
2016-12-11T08:02:52.262Z,724
2016-12-11T08:03:52.873Z,768
2016-12-11T08:04:53.516Z,788
2016-12-11T08:05:54.159Z,748
2016-12-11T08:06:54.784Z,840
2016-12-11T08:07:55.468Z,996
2016-12-11T08:08:56.192Z,1092
2016-12-11T08:09:56.819Z,1156
2016-12-11T08:10:57.475Z,1268
2016-12-11T08:11:58.162Z,1500
2016-12-11T08:12:58.851Z,1700
2016-12-11T08:13:59.513Z,1968
2016-12-11T08:15:00.167Z,1968
2016-12-11T08:16:00.859Z,1908
2016-12-11T08:17:01.518Z,2104
2016-12-11T08:18:02.172Z,2512
2016-12-11T08:19:02.814Z,2852
2016-12-11T08:20:03.482Z,3344
2016-12-11T08:21:04.209Z,2820
2016-12-11T08:22:04.877Z,1868
2016-12-11T08:23:05.549Z,1280
2016-12-11T08:24:06.198Z,1144
2016-12-11T08:25:06.846Z,1168
2016-12-11T08:26:07.522Z,1196
2016-12-11T08:27:08.165Z,1332
2016-12-11T08:28:08.823Z,1248
2016-12-11T08:29:09.522Z,1468
2016-12-11T08:30:10.205Z,1668
2016-12-11T08:31:10.852Z,1828
2016-12-11T08:32:11.488Z,1836
2016-12-11T08:33:12.131Z,1568
2016-12-11T08:34:12.799Z,1556
2016-12-11T08:35:13.450Z,1500
2016-12-11T08:36:14.112Z,1512
2016-12-11T08:37:14.753Z,1316
2016-12-11T08:38:15.400Z,1056
2016-12-11T08:39:16.050Z,848
2016-12-11T08:40:16.702Z,896
2016-12-11T08:41:17.367Z,1164
2016-12-11T08:42:17.992Z,1380
2016-12-11T08:43:18.651Z,2004
2016-12-11T08:44:19.278Z,1944
2016-12-11T08:45:19.925Z,1072
2016-12-11T08:46:20.572Z,1068
2016-12-11T08:47:22.191Z,1012
2016-12-11T08:48:22.832Z,1128
2016-12-11T08:49:23.462Z,1328
2016-12-11T08:50:24.082Z,1848
2016-12-11T08:51:24.733Z,2196
2016-12-11T08:52:25.425Z,1792
2016-12-11T08:53:26.061Z,1060
2016-12-11T08:54:26.698Z,980
2016-12-11T08:55:27.364Z,1060
2016-12-11T08:56:28.009Z,1292
2016-12-11T08:57:28.663Z,1960
2016-12-11T08:58:29.309Z,2644
2016-12-11T08:59:29.942Z,2772
2016-12-11T09:00:30.564Z,2280
2016-12-11T09:01:31.185Z,1584
2016-12-11T09:02:31.804Z,1124
2016-12-11T09:03:32.435Z,1140
2016-12-11T09:04:33.056Z,1172
2016-12-11T09:05:33.690Z,1124
2016-12-11T09:06:34.313Z,1260
2016-12-11T09:07:34.944Z,1420
2016-12-11T09:08:35.582Z,1644
2016-12-11T09:09:36.237Z,2204
2016-12-11T09:10:36.853Z,3560
2016-12-11T09:11:37.502Z,6588
2016-12-11T09:12:38.163Z,3168
2016-12-11T09:13:38.801Z,3292
2016-12-11T09:14:39.439Z,2748
2016-12-11T09:15:40.144Z,2592
2016-12-11T09:16:40.786Z,2304
2016-12-11T09:17:41.462Z,2304
2016-12-11T09:18:42.197Z,2536
2016-12-11T09:19:42.906Z,2736
2016-12-11T09:20:43.559Z,2632
2016-12-11T09:21:44.192Z,1956
2016-12-11T09:22:44.818Z,1948
2016-12-11T09:23:45.469Z,2252
2016-12-11T09:24:46.110Z,2480
2016-12-11T09:25:46.732Z,2008
2016-12-11T09:26:47.368Z,1964
2016-12-11T09:27:48.006Z,2640
2016-12-11T09:28:48.647Z,3112
2016-12-11T09:29:49.287Z,2428
2016-12-11T09:30:49.924Z,3076
2016-12-11T09:31:50.530Z,2640
2016-12-11T09:32:51.164Z,2692
2016-12-11T09:33:51.805Z,3200
2016-12-11T09:34:52.456Z,3472
2016-12-11T09:35:53.090Z,2368
2016-12-11T09:36:53.722Z,1348
2016-12-11T09:37:54.368Z,1556
2016-12-11T09:38:54.996Z,1556
2016-12-11T09:39:55.639Z,2708
2016-12-11T09:40:56.340Z,3768
2016-12-11T09:41:57.017Z,3628
2016-12-11T09:42:57.681Z,3224
2016-12-11T09:43:58.394Z,2568
2016-12-11T09:44:59.067Z,2424
2016-12-11T09:45:59.721Z,2552
2016-12-11T09:47:00.405Z,3040
2016-12-11T09:48:01.104Z,2984
2016-12-11T09:49:01.931Z,3160
2016-12-11T09:50:02.758Z,3676
2016-12-11T09:51:03.414Z,3948
2016-12-11T09:52:04.089Z,4224
2016-12-11T09:53:04.786Z,3616
2016-12-11T09:54:05.440Z,3228
2016-12-11T09:55:06.090Z,3148
2016-12-11T09:56:06.761Z,2864
2016-12-11T09:57:07.408Z,2776
2016-12-11T09:58:08.056Z,2880
2016-12-11T09:59:08.699Z,2656
2016-12-11T10:00:09.349Z,2816
2016-12-11T10:01:09.981Z,2952
2016-12-11T10:02:10.659Z,3108
2016-12-11T10:03:11.310Z,3456
2016-12-11T10:04:12.034Z,3516
2016-12-11T10:05:12.672Z,3072
2016-12-11T10:06:13.329Z,3872
2016-12-11T10:07:14.188Z,4288
2016-12-11T10:08:14.949Z,4240
2016-12-11T10:09:15.665Z,4708
2016-12-11T10:10:16.366Z,4784
2016-12-11T10:11:17.043Z,4208
2016-12-11T10:12:17.692Z,3780
2016-12-11T10:13:18.362Z,3524
2016-12-11T10:14:19.004Z,3692
2016-12-11T10:15:19.673Z,4392
2016-12-11T10:16:20.289Z,4756
2016-12-11T10:17:20.978Z,4840
2016-12-11T10:18:21.665Z,4176
2016-12-11T10:19:22.306Z,3656
2016-12-11T10:20:22.987Z,3544
2016-12-11T10:21:23.643Z,3068
2016-12-11T10:22:24.324Z,3896
2016-12-11T10:23:24.942Z,4400
2016-12-11T10:24:25.626Z,2812
2016-12-11T10:25:26.504Z,2288
2016-12-11T10:26:27.118Z,1592
2016-12-11T10:27:27.966Z,1652
2016-12-11T10:28:28.634Z,1944
2016-12-11T10:29:29.312Z,1412
2016-12-11T10:30:29.979Z,2172
2016-12-11T10:31:30.615Z,2192
2016-12-11T10:32:31.253Z,1624
2016-12-11T10:33:31.933Z,2232
2016-12-11T10:34:32.636Z,2056
2016-12-11T10:35:33.316Z,3196
2016-12-11T10:36:34.008Z,3388
2016-12-11T10:37:34.738Z,4612
2016-12-11T10:38:35.395Z,3816
2016-12-11T10:39:36.036Z,3372
2016-12-11T10:40:36.951Z,2480
2016-12-11T10:41:37.871Z,2312
2016-12-11T10:42:38.569Z,2772
2016-12-11T10:43:39.206Z,3180
2016-12-11T10:44:39.862Z,2908
2016-12-11T10:45:40.786Z,3344
2016-12-11T10:46:41.408Z,4404
2016-12-11T10:47:42.055Z,4064
2016-12-11T10:48:42.736Z,4352
2016-12-11T10:49:43.436Z,3652
2016-12-11T10:50:44.074Z,3928
2016-12-11T10:51:44.772Z,5436
2016-12-11T10:52:45.430Z,6324
2016-12-11T10:53:46.123Z,5720
2016-12-11T10:54:46.787Z,5840
2016-12-11T10:55:47.482Z,5976
2016-12-11T10:56:48.109Z,6324
2016-12-11T10:57:48.751Z,6404
2016-12-11T10:58:49.427Z,6368
2016-12-11T10:59:50.118Z,5740
2016-12-11T11:00:50.783Z,4416
2016-12-11T11:01:51.514Z,3644
2016-12-11T11:02:52.167Z,4016
2016-12-11T11:03:52.829Z,4144
2016-12-11T11:04:53.523Z,3968
2016-12-11T11:05:54.146Z,4896
2016-12-11T11:06:54.766Z,5304
2016-12-11T11:07:55.429Z,5632
2016-12-11T11:08:56.066Z,7164
2016-12-11T11:09:56.723Z,7800
2016-12-11T11:10:57.382Z,6892
2016-12-11T11:11:58.040Z,8480
2016-12-11T11:12:58.717Z,9996
2016-12-11T11:13:59.371Z,9512
2016-12-11T11:15:00.011Z,7336
2016-12-11T11:16:00.648Z,7848
2016-12-11T11:17:01.287Z,8072
2016-12-11T11:18:02.349Z,5640
2016-12-11T11:19:03.017Z,4808
2016-12-11T11:20:03.664Z,4568
2016-12-11T11:21:04.304Z,4412
2016-12-11T11:22:04.968Z,4696
2016-12-11T11:23:05.607Z,4136
2016-12-11T11:24:06.299Z,3672
2016-12-11T11:25:06.956Z,3472
2016-12-11T11:26:07.630Z,3724
2016-12-11T11:27:08.281Z,4604
2016-12-11T11:28:08.926Z,4448
2016-12-11T11:29:09.605Z,4204
2016-12-11T11:30:10.284Z,4040
2016-12-11T11:31:10.950Z,3628
2016-12-11T11:32:12.053Z,3772
2016-12-11T11:33:12.710Z,3092
2016-12-11T11:34:13.454Z,2656
2016-12-11T11:35:14.216Z,2908
2016-12-11T11:36:15.162Z,4252
2016-12-11T11:37:15.975Z,4548
2016-12-11T11:38:16.636Z,5148
2016-12-11T11:39:17.354Z,5164
2016-12-11T11:40:18.021Z,4328
2016-12-11T11:41:18.748Z,4328
2016-12-11T11:42:19.481Z,4068
2016-12-11T11:43:20.126Z,2416
2016-12-11T11:44:20.856Z,2492
2016-12-11T11:45:21.496Z,3228
2016-12-11T11:46:22.324Z,2616
2016-12-11T11:47:23.053Z,2068
2016-12-11T11:48:23.775Z,1236
2016-12-11T11:49:24.485Z,804
2016-12-11T11:50:25.357Z,848
2016-12-11T11:51:26.025Z,1012
2016-12-11T11:52:26.667Z,1192
2016-12-11T11:53:27.384Z,1108
2016-12-11T11:54:28.036Z,944
2016-12-11T11:55:28.787Z,1104
2016-12-11T11:56:29.454Z,1292
2016-12-11T11:57:30.122Z,1188
2016-12-11T11:58:30.892Z,1264
2016-12-11T11:59:31.703Z,1064
2016-12-11T12:00:32.378Z,992
2016-12-11T12:01:33.061Z,1184
2016-12-11T12:02:33.900Z,952
2016-12-11T12:03:34.507Z,584
2016-12-11T12:04:35.319Z,928
2016-12-11T12:05:36.053Z,1516
2016-12-11T12:06:36.710Z,1472
2016-12-11T12:07:37.360Z,1464
2016-12-11T12:08:38.142Z,1800
2016-12-11T12:09:38.807Z,2160
2016-12-11T12:10:39.464Z,2516
2016-12-11T12:11:40.116Z,2376
2016-12-11T12:12:40.895Z,2212
2016-12-11T12:13:41.568Z,2088
2016-12-11T12:14:42.208Z,2764
2016-12-11T12:15:42.858Z,3012
2016-12-11T12:16:43.553Z,2288
2016-12-11T12:17:44.189Z,2536
2016-12-11T12:18:44.850Z,2440
2016-12-11T12:19:45.501Z,2020
2016-12-11T12:20:46.147Z,1936
2016-12-11T12:21:47.739Z,1196
2016-12-11T12:22:48.394Z,1856
2016-12-11T12:23:49.053Z,2208
2016-12-11T12:24:49.794Z,2132
2016-12-11T12:25:50.498Z,1660
2016-12-11T12:26:51.287Z,2128
2016-12-11T12:27:52.068Z,1896
2016-12-11T12:28:52.732Z,2216
2016-12-11T12:29:53.470Z,1764
2016-12-11T12:30:54.301Z,1092
2016-12-11T12:31:55.152Z,1372
2016-12-11T12:32:55.915Z,1940
2016-12-11T12:33:56.775Z,2332
2016-12-11T12:34:57.484Z,2808
2016-12-11T12:35:58.307Z,2592
2016-12-11T12:36:59.049Z,1972
2016-12-11T12:37:59.769Z,1816
2016-12-11T12:39:00.458Z,2076
2016-12-11T12:40:01.156Z,3832
2016-12-11T12:41:01.814Z,3396
2016-12-11T12:42:02.545Z,2724
2016-12-11T12:43:03.278Z,2900
2016-12-11T12:44:03.959Z,2168
2016-12-11T12:45:04.677Z,1804
2016-12-11T12:46:05.353Z,1528
2016-12-11T12:47:06.061Z,1052
2016-12-11T12:48:06.822Z,1208
2016-12-11T12:49:07.702Z,1076
2016-12-11T12:50:08.347Z,1232
2016-12-11T12:51:09.181Z,1304
2016-12-11T12:52:10.019Z,1520
2016-12-11T12:53:10.709Z,1680
2016-12-11T12:54:11.363Z,1848
2016-12-11T12:55:12.019Z,1128
2016-12-11T12:56:12.730Z,1260
2016-12-11T12:57:13.405Z,920
2016-12-11T12:58:14.076Z,844
2016-12-11T12:59:14.708Z,900
2016-12-11T13:00:16.097Z,792
2016-12-11T13:01:16.802Z,764
2016-12-11T13:02:17.448Z,964
2016-12-11T13:03:18.103Z,760
2016-12-11T13:04:18.738Z,584
2016-12-11T13:05:19.465Z,744
2016-12-11T13:06:20.086Z,788
2016-12-11T13:07:20.731Z,844
2016-12-11T13:08:21.373Z,1104
2016-12-11T13:09:22.109Z,1128
2016-12-11T13:10:22.755Z,1088
2016-12-11T13:11:23.430Z,948
2016-12-11T13:12:24.086Z,844
2016-12-11T13:13:24.722Z,1036
2016-12-11T13:14:25.418Z,1284
2016-12-11T13:15:26.065Z,1312
2016-12-11T13:16:26.754Z,1064
2016-12-11T13:17:27.419Z,1168
2016-12-11T13:18:28.080Z,2208
2016-12-11T13:19:28.716Z,3556
2016-12-11T13:20:29.389Z,4016
2016-12-11T13:21:30.054Z,3564
2016-12-11T13:22:30.725Z,3336
2016-12-11T13:23:31.383Z,3472
2016-12-11T13:24:32.065Z,3484
2016-12-11T13:25:32.752Z,3308
2016-12-11T13:26:33.414Z,3120
2016-12-11T13:27:34.073Z,2844
2016-12-11T13:28:34.712Z,2760
2016-12-11T13:29:35.520Z,3020
2016-12-11T13:30:36.244Z,2428
2016-12-11T13:31:36.885Z,2340
2016-12-11T13:32:37.533Z,2320
2016-12-11T13:33:38.212Z,2288
2016-12-11T13:34:38.844Z,2140
2016-12-11T13:35:39.475Z,2176
2016-12-11T13:36:40.176Z,2060
2016-12-11T13:37:40.856Z,2040
2016-12-11T13:38:41.528Z,2052
2016-12-11T13:39:42.167Z,2036
2016-12-11T13:40:42.902Z,1860
2016-12-11T13:41:43.543Z,1684
2016-12-11T13:42:44.207Z,1568
2016-12-11T13:43:44.858Z,1388
2016-12-11T13:44:45.477Z,972
2016-12-11T13:45:46.097Z,736
2016-12-11T13:46:46.769Z,956
2016-12-11T13:47:47.469Z,940
2016-12-11T13:48:48.117Z,916
2016-12-11T13:49:48.773Z,796
2016-12-11T13:50:49.434Z,884
2016-12-11T13:51:50.163Z,928
2016-12-11T13:52:50.837Z,1084
2016-12-11T13:53:51.478Z,1208
2016-12-11T13:54:52.171Z,1652
2016-12-11T13:55:52.855Z,1880
2016-12-11T13:56:53.535Z,1864
2016-12-11T13:57:54.199Z,1968
2016-12-11T13:58:54.884Z,1824
2016-12-11T13:59:55.509Z,1796
2016-12-11T14:00:56.121Z,1752
2016-12-11T14:01:56.749Z,1636
2016-12-11T14:02:57.371Z,1520
2016-12-11T14:03:57.993Z,1480
2016-12-11T14:04:58.601Z,1408
2016-12-11T14:05:59.382Z,1332
2016-12-11T14:07:00.047Z,1184
2016-12-11T14:08:00.725Z,956
2016-12-11T14:09:01.380Z,620
2016-12-11T14:10:02.015Z,580
2016-12-11T14:11:02.634Z,636
2016-12-11T14:12:03.328Z,736
2016-12-11T14:13:04.035Z,716
2016-12-11T14:14:04.654Z,612